createdAt,value
2022-08-30T16:21:43.013Z,25.75
2022-08-30T16:24:46.616Z,25.72
2022-08-30T16:27:49.628Z,25.66
2022-08-30T16:30:53.722Z,25.47
2022-08-30T16:34:02.599Z,25.50
2022-08-30T16:37:07.860Z,25.41
2022-08-30T16:40:12.157Z,25.28
2022-08-30T16:43:16.384Z,25.24
2022-08-30T16:46:23.241Z,25.17
2022-08-30T16:49:26.693Z,25.10
2022-08-30T16:52:29.531Z,25.00
2022-08-30T16:55:36.438Z,24.91
2022-08-30T16:58:39.188Z,24.69
2022-08-30T17:01:44.083Z,24.72
2022-08-30T17:04:52.945Z,24.49
2022-08-30T17:07:56.363Z,24.58
2022-08-30T17:10:59.658Z,24.49
2022-08-30T17:14:03.907Z,24.27
2022-08-30T17:17:06.918Z,24.23
2022-08-30T17:20:10.479Z,23.95
2022-08-30T17:23:14.293Z,23.88
2022-08-30T17:26:17.748Z,23.57
2022-08-30T17:29:20.605Z,23.43
2022-08-30T17:32:25.507Z,23.24
2022-08-30T17:35:28.769Z,23.03
2022-08-30T17:38:32.162Z,22.90
2022-08-30T17:41:35.410Z,22.75
2022-08-30T17:44:42.158Z,22.62
2022-08-30T17:47:45.998Z,22.49
2022-08-30T17:50:56.073Z,22.38
2022-08-30T17:53:59.719Z,22.05
2022-08-30T17:57:10.795Z,22.15
2022-08-30T18:00:15.771Z,22.07
2022-08-30T18:03:18.949Z,22.03
2022-08-30T18:06:21.986Z,21.98
2022-08-30T18:09:25.176Z,21.93
2022-08-30T18:12:27.858Z,21.91
2022-08-30T18:15:31.009Z,21.90
2022-08-30T18:18:33.718Z,21.88
2022-08-30T18:21:37.581Z,21.66
2022-08-30T18:24:40.644Z,21.58
2022-08-30T18:27:43.795Z,21.73
2022-08-30T18:30:56.060Z,21.71
2022-08-30T18:34:00.446Z,21.65
2022-08-30T18:37:03.258Z,21.62
2022-08-30T18:40:09.692Z,21.61
2022-08-30T18:43:12.660Z,21.43
2022-08-30T18:46:18.089Z,21.52
2022-08-30T18:49:21.440Z,21.54
2022-08-30T18:52:26.179Z,21.43
2022-08-30T18:55:29.066Z,21.50
2022-08-30T18:58:32.193Z,21.50
2022-08-30T19:01:34.997Z,21.44
2022-08-30T19:04:39.006Z,21.20
2022-08-30T19:07:45.929Z,21.42
2022-08-30T19:10:50.386Z,21.35
2022-08-30T19:13:54.565Z,21.20
2022-08-30T19:17:02.004Z,21.32
2022-08-30T19:20:11.475Z,21.31
2022-08-30T19:23:14.561Z,21.25
2022-08-30T19:26:17.507Z,21.33
2022-08-30T19:29:21.127Z,21.36
2022-08-30T19:32:23.962Z,21.32
2022-08-30T19:35:27.019Z,21.30
2022-08-30T19:38:35.656Z,21.26
2022-08-30T19:41:38.697Z,21.15
2022-08-30T19:44:41.460Z,20.95
2022-08-30T19:47:46.044Z,21.11
2022-08-30T19:50:49.769Z,21.05
2022-08-30T19:53:53.003Z,20.94
2022-08-30T19:57:00.593Z,20.86
2022-08-30T20:00:07.579Z,20.94
2022-08-30T20:03:14.129Z,20.84
2022-08-30T20:06:19.765Z,20.79
2022-08-30T20:09:22.793Z,20.61
2022-08-30T20:12:26.419Z,20.61
2022-08-30T20:15:29.074Z,20.50
2022-08-30T20:18:33.453Z,20.66
2022-08-30T20:21:36.687Z,20.58
2022-08-30T20:24:43.965Z,20.47
2022-08-30T20:27:46.992Z,20.47
2022-08-30T20:30:50.592Z,20.41
2022-08-30T20:33:53.382Z,20.33
2022-08-30T20:36:57.738Z,20.07
2022-08-30T20:40:02.247Z,20.13
2022-08-30T20:43:06.929Z,19.90
2022-08-30T20:46:15.453Z,20.16
2022-08-30T20:49:20.414Z,20.24
2022-08-30T20:52:23.431Z,20.31
2022-08-30T20:55:26.892Z,20.32
2022-08-30T20:58:30.949Z,20.26
2022-08-30T21:01:36.502Z,20.26
2022-08-30T21:04:41.058Z,20.20
2022-08-30T21:07:45.861Z,20.24
2022-08-30T21:10:48.816Z,20.17
2022-08-30T21:13:51.728Z,20.25
2022-08-30T21:16:54.481Z,20.28
2022-08-30T21:19:57.719Z,20.30
2022-08-30T21:23:03.173Z,20.29
2022-08-30T21:26:08.060Z,20.22
2022-08-30T21:29:12.013Z,20.14
2022-08-30T21:32:15.129Z,20.05
2022-08-30T21:35:36.827Z,19.93
2022-08-30T21:38:39.805Z,19.84
2022-08-30T21:41:43.705Z,19.70
2022-08-30T21:44:46.678Z,19.56
2022-08-30T21:47:49.409Z,19.46
2022-08-30T21:50:52.373Z,19.36
2022-08-30T21:53:57.139Z,19.23
2022-08-30T21:57:03.204Z,19.10
2022-08-30T22:00:07.320Z,18.94
2022-08-30T22:03:09.931Z,18.79
2022-08-30T22:06:14.458Z,18.71
2022-08-30T22:09:19.958Z,18.61
2022-08-30T22:12:23.675Z,18.47
2022-08-30T22:15:28.811Z,18.38
2022-08-30T22:18:33.029Z,18.17
2022-08-30T22:21:37.816Z,18.19
2022-08-30T22:24:40.839Z,18.17
2022-08-30T22:27:43.638Z,18.03
2022-08-30T22:30:48.047Z,18.06
2022-08-30T22:33:51.773Z,17.86
2022-08-30T22:36:54.728Z,17.85
2022-08-30T22:39:57.397Z,17.69
2022-08-30T22:43:01.287Z,17.58
2022-08-30T22:46:07.147Z,17.52
2022-08-30T22:49:11.146Z,17.45
2022-08-30T22:52:14.411Z,17.20
2022-08-30T22:55:17.483Z,17.21
2022-08-30T22:58:20.332Z,16.99
2022-08-30T23:01:27.140Z,17.00
2022-08-30T23:04:29.860Z,16.90
2022-08-30T23:07:32.779Z,16.84
2022-08-30T23:10:35.976Z,16.68
2022-08-30T23:13:39.027Z,16.79
2022-08-30T23:16:41.720Z,16.71
2022-08-30T23:19:44.728Z,16.83
2022-08-30T23:22:57.933Z,16.84
2022-08-30T23:26:20.512Z,16.92
2022-08-30T23:29:41.917Z,16.80
2022-08-30T23:33:03.742Z,16.97
2022-08-30T23:36:30.154Z,16.93
2022-08-30T23:39:51.657Z,16.93
2022-08-30T23:43:13.223Z,16.80
2022-08-30T23:46:35.159Z,16.94
2022-08-30T23:49:56.628Z,16.79
2022-08-30T23:53:18.198Z,16.96
2022-08-30T23:56:39.416Z,17.10
